sensor_id;sensor_type;location;lat;lon;timestamp;temperature;humidity
52575;DHT22;38468;48.114;-1.684;2022-08-03T00:01:40;22.80;69.80
52575;DHT22;38468;48.114;-1.684;2022-08-03T00:04:14;22.80;69.80
52575;DHT22;38468;48.114;-1.684;2022-08-03T00:06:15;22.80;70.00
52575;DHT22;38468;48.114;-1.684;2022-08-03T00:08:16;22.70;70.00
52575;DHT22;38468;48.114;-1.684;2022-08-03T00:10:16;22.80;69.70
52575;DHT22;38468;48.114;-1.684;2022-08-03T00:12:17;22.60;70.20
52575;DHT22;38468;48.114;-1.684;2022-08-03T00:14:18;22.70;70.40
52575;DHT22;38468;48.114;-1.684;2022-08-03T00:16:18;22.60;70.50
52575;DHT22;38468;48.114;-1.684;2022-08-03T00:18:20;22.50;70.80
52575;DHT22;38468;48.114;-1.684;2022-08-03T00:20:39;22.50;70.80
52575;DHT22;38468;48.114;-1.684;2022-08-03T00:22:40;22.50;71.00
52575;DHT22;38468;48.114;-1.684;2022-08-03T00:24:42;22.40;71.40
52575;DHT22;38468;48.114;-1.684;2022-08-03T00:26:42;22.50;71.20
52575;DHT22;38468;48.114;-1.684;2022-08-03T00:28:43;22.50;71.30
52575;DHT22;38468;48.114;-1.684;2022-08-03T00:30:44;22.50;71.20
52575;DHT22;38468;48.114;-1.684;2022-08-03T00:32:47;22.50;71.20
52575;DHT22;38468;48.114;-1.684;2022-08-03T00:35:00;22.40;71.50
52575;DHT22;38468;48.114;-1.684;2022-08-03T00:37:00;22.40;71.50
52575;DHT22;38468;48.114;-1.684;2022-08-03T00:39:02;22.50;71.20
52575;DHT22;38468;48.114;-1.684;2022-08-03T00:41:03;22.40;71.60
52575;DHT22;38468;48.114;-1.684;2022-08-03T00:43:05;22.50;71.50
52575;DHT22;38468;48.114;-1.684;2022-08-03T00:45:06;22.30;72.00
52575;DHT22;38468;48.114;-1.684;2022-08-03T00:47:08;22.20;72.30
52575;DHT22;38468;48.114;-1.684;2022-08-03T00:49:09;22.20;72.60
52575;DHT22;38468;48.114;-1.684;2022-08-03T00:51:10;22.20;72.80
52575;DHT22;38468;48.114;-1.684;2022-08-03T00:53:11;22.10;72.80
52575;DHT22;38468;48.114;-1.684;2022-08-03T00:55:13;22.10;72.80
52575;DHT22;38468;48.114;-1.684;2022-08-03T00:57:13;22.10;73.00
52575;DHT22;38468;48.114;-1.684;2022-08-03T00:59:17;22.00;73.20
52575;DHT22;38468;48.114;-1.684;2022-08-03T01:01:18;22.00;73.20
52575;DHT22;38468;48.114;-1.684;2022-08-03T01:03:19;22.00;73.10
52575;DHT22;38468;48.114;-1.684;2022-08-03T01:08:13;22.00;73.20
52575;DHT22;38468;48.114;-1.684;2022-08-03T01:17:56;21.80;74.00
52575;DHT22;38468;48.114;-1.684;2022-08-03T01:29:59;21.60;74.30
52575;DHT22;38468;48.114;-1.684;2022-08-03T01:32:07;21.50;74.70
52575;DHT22;38468;48.114;-1.684;2022-08-03T01:40:04;21.50;75.00
52575;DHT22;38468;48.114;-1.684;2022-08-03T01:42:06;21.50;75.00
52575;DHT22;38468;48.114;-1.684;2022-08-03T01:44:10;21.50;74.80
52575;DHT22;38468;48.114;-1.684;2022-08-03T01:46:13;21.60;74.80
52575;DHT22;38468;48.114;-1.684;2022-08-03T01:48:16;21.40;75.20
52575;DHT22;38468;48.114;-1.684;2022-08-03T01:53:16;21.20;75.80
52575;DHT22;38468;48.114;-1.684;2022-08-03T01:55:18;21.50;75.30
52575;DHT22;38468;48.114;-1.684;2022-08-03T01:57:20;21.50;75.10
52575;DHT22;38468;48.114;-1.684;2022-08-03T01:59:22;21.50;75.20
52575;DHT22;38468;48.114;-1.684;2022-08-03T02:01:26;21.20;75.90
52575;DHT22;38468;48.114;-1.684;2022-08-03T02:03:28;21.30;75.80
52575;DHT22;38468;48.114;-1.684;2022-08-03T02:05:30;21.30;75.70
52575;DHT22;38468;48.114;-1.684;2022-08-03T02:07:31;21.50;75.30
52575;DHT22;38468;48.114;-1.684;2022-08-03T02:09:33;21.40;75.60
52575;DHT22;38468;48.114;-1.684;2022-08-03T02:11:37;21.40;75.50
52575;DHT22;38468;48.114;-1.684;2022-08-03T02:13:38;21.30;75.90
52575;DHT22;38468;48.114;-1.684;2022-08-03T02:15:40;21.40;75.70
52575;DHT22;38468;48.114;-1.684;2022-08-03T02:17:43;21.30;75.90
52575;DHT22;38468;48.114;-1.684;2022-08-03T02:23:16;21.30;76.00
52575;DHT22;38468;48.114;-1.684;2022-08-03T02:25:18;21.20;76.60
52575;DHT22;38468;48.114;-1.684;2022-08-03T02:27:21;21.10;77.00
52575;DHT22;38468;48.114;-1.684;2022-08-03T02:29:25;21.10;77.00
52575;DHT22;38468;48.114;-1.684;2022-08-03T02:31:29;21.10;76.90
52575;DHT22;38468;48.114;-1.684;2022-08-03T02:33:36;21.20;76.90
52575;DHT22;38468;48.114;-1.684;2022-08-03T02:35:38;21.20;76.70
52575;DHT22;38468;48.114;-1.684;2022-08-03T02:37:42;21.20;76.80
52575;DHT22;38468;48.114;-1.684;2022-08-03T02:39:44;21.10;77.00
52575;DHT22;38468;48.114;-1.684;2022-08-03T02:41:53;21.00;77.10
52575;DHT22;38468;48.114;-1.684;2022-08-03T02:44:03;21.00;77.70
52575;DHT22;38468;48.114;-1.684;2022-08-03T02:46:08;20.90;78.00
52575;DHT22;38468;48.114;-1.684;2022-08-03T02:48:11;20.90;77.90
52575;DHT22;38468;48.114;-1.684;2022-08-03T02:50:15;21.00;77.60
52575;DHT22;38468;48.114;-1.684;2022-08-03T02:52:16;21.10;77.40
52575;DHT22;38468;48.114;-1.684;2022-08-03T02:54:19;21.10;77.30
52575;DHT22;38468;48.114;-1.684;2022-08-03T02:56:23;21.10;77.30
52575;DHT22;38468;48.114;-1.684;2022-08-03T02:58:25;21.10;77.10
52575;DHT22;38468;48.114;-1.684;2022-08-03T03:00:26;21.00;77.70
52575;DHT22;38468;48.114;-1.684;2022-08-03T03:02:28;21.10;77.50
52575;DHT22;38468;48.114;-1.684;2022-08-03T03:07:06;21.20;77.10
52575;DHT22;38468;48.114;-1.684;2022-08-03T03:09:07;21.00;77.70
52575;DHT22;38468;48.114;-1.684;2022-08-03T03:11:09;20.90;78.20
52575;DHT22;38468;48.114;-1.684;2022-08-03T03:13:11;20.80;78.50
52575;DHT22;38468;48.114;-1.684;2022-08-03T03:15:13;20.80;78.60
52575;DHT22;38468;48.114;-1.684;2022-08-03T03:17:14;20.80;78.50
52575;DHT22;38468;48.114;-1.684;2022-08-03T03:22:13;21.00;78.10
52575;DHT22;38468;48.114;-1.684;2022-08-03T03:24:15;20.90;78.20
52575;DHT22;38468;48.114;-1.684;2022-08-03T03:26:16;21.00;78.40
52575;DHT22;38468;48.114;-1.684;2022-08-03T03:28:17;21.00;78.10
52575;DHT22;38468;48.114;-1.684;2022-08-03T03:30:18;20.90;78.30
52575;DHT22;38468;48.114;-1.684;2022-08-03T03:32:19;21.00;78.30
52575;DHT22;38468;48.114;-1.684;2022-08-03T03:34:20;20.90;78.40
52575;DHT22;38468;48.114;-1.684;2022-08-03T03:36:20;20.90;78.50
52575;DHT22;38468;48.114;-1.684;2022-08-03T03:38:21;21.00;78.50
52575;DHT22;38468;48.114;-1.684;2022-08-03T03:40:22;20.90;78.60
52575;DHT22;38468;48.114;-1.684;2022-08-03T03:42:24;20.80;78.90
52575;DHT22;38468;48.114;-1.684;2022-08-03T03:44:30;21.00;78.80
52575;DHT22;38468;48.114;-1.684;2022-08-03T03:46:30;21.00;78.80
52575;DHT22;38468;48.114;-1.684;2022-08-03T03:48:32;21.00;78.40
52575;DHT22;38468;48.114;-1.684;2022-08-03T03:53:29;21.10;78.20
52575;DHT22;38468;48.114;-1.684;2022-08-03T03:55:30;21.00;78.40
52575;DHT22;38468;48.114;-1.684;2022-08-03T03:57:31;21.00;78.30
52575;DHT22;38468;48.114;-1.684;2022-08-03T03:59:37;21.00;78.50
52575;DHT22;38468;48.114;-1.684;2022-08-03T04:01:38;20.90;79.10
52575;DHT22;38468;48.114;-1.684;2022-08-03T04:03:39;20.90;79.00
52575;DHT22;38468;48.114;-1.684;2022-08-03T04:06:03;20.80;79.50
52575;DHT22;38468;48.114;-1.684;2022-08-03T04:08:36;20.50;80.50
52575;DHT22;38468;48.114;-1.684;2022-08-03T04:13:12;20.80;79.60
52575;DHT22;38468;48.114;-1.684;2022-08-03T04:15:16;20.90;79.30
52575;DHT22;38468;48.114;-1.684;2022-08-03T04:17:18;20.90;79.30
52575;DHT22;38468;48.114;-1.684;2022-08-03T04:19:27;20.80;79.70
52575;DHT22;38468;48.114;-1.684;2022-08-03T04:21:30;20.90;79.50
52575;DHT22;38468;48.114;-1.684;2022-08-03T04:23:33;21.00;79.30
52575;DHT22;38468;48.114;-1.684;2022-08-03T04:25:36;21.00;79.30
52575;DHT22;38468;48.114;-1.684;2022-08-03T04:27:40;20.90;79.40
52575;DHT22;38468;48.114;-1.684;2022-08-03T04:29:45;20.90;79.50
52575;DHT22;38468;48.114;-1.684;2022-08-03T04:31:47;20.80;79.70
52575;DHT22;38468;48.114;-1.684;2022-08-03T04:33:51;20.80;79.60
52575;DHT22;38468;48.114;-1.684;2022-08-03T04:35:53;20.80;79.90
52575;DHT22;38468;48.114;-1.684;2022-08-03T04:38:00;20.80;79.80
52575;DHT22;38468;48.114;-1.684;2022-08-03T04:40:08;20.90;79.80
52575;DHT22;38468;48.114;-1.684;2022-08-03T04:42:12;20.90;79.60
52575;DHT22;38468;48.114;-1.684;2022-08-03T04:44:14;20.90;79.40
52575;DHT22;38468;48.114;-1.684;2022-08-03T04:46:16;21.00;79.50
52575;DHT22;38468;48.114;-1.684;2022-08-03T04:48:18;20.90;79.40
52575;DHT22;38468;48.114;-1.684;2022-08-03T04:50:20;21.00;79.20
52575;DHT22;38468;48.114;-1.684;2022-08-03T04:52:21;21.00;79.20
52575;DHT22;38468;48.114;-1.684;2022-08-03T04:54:22;20.90;79.70
52575;DHT22;38468;48.114;-1.684;2022-08-03T04:56:22;21.00;79.30
52575;DHT22;38468;48.114;-1.684;2022-08-03T04:58:23;20.90;79.50
52575;DHT22;38468;48.114;-1.684;2022-08-03T05:00:24;21.00;79.50
52575;DHT22;38468;48.114;-1.684;2022-08-03T05:02:25;21.00;79.30
52575;DHT22;38468;48.114;-1.684;2022-08-03T05:04:26;21.00;79.30
52575;DHT22;38468;48.114;-1.684;2022-08-03T05:06:27;21.00;79.20
52575;DHT22;38468;48.114;-1.684;2022-08-03T05:08:28;21.00;79.20
52575;DHT22;38468;48.114;-1.684;2022-08-03T05:10:28;21.00;79.40
52575;DHT22;38468;48.114;-1.684;2022-08-03T05:12:29;20.80;80.00
52575;DHT22;38468;48.114;-1.684;2022-08-03T05:14:30;20.90;79.90
52575;DHT22;38468;48.114;-1.684;2022-08-03T05:16:30;20.90;79.70
52575;DHT22;38468;48.114;-1.684;2022-08-03T05:18:31;21.00;79.60
52575;DHT22;38468;48.114;-1.684;2022-08-03T05:23:44;21.00;79.30
52575;DHT22;38468;48.114;-1.684;2022-08-03T05:25:44;21.00;79.40
52575;DHT22;38468;48.114;-1.684;2022-08-03T05:27:45;21.00;79.30
52575;DHT22;38468;48.114;-1.684;2022-08-03T05:29:47;21.00;79.50
52575;DHT22;38468;48.114;-1.684;2022-08-03T05:31:48;21.10;79.20
52575;DHT22;38468;48.114;-1.684;2022-08-03T05:33:49;21.10;79.00
52575;DHT22;38468;48.114;-1.684;2022-08-03T05:38:33;21.10;79.10
52575;DHT22;38468;48.114;-1.684;2022-08-03T05:40:34;21.10;78.90
52575;DHT22;38468;48.114;-1.684;2022-08-03T05:42:36;21.10;78.80
52575;DHT22;38468;48.114;-1.684;2022-08-03T05:44:37;21.30;78.60
52575;DHT22;38468;48.114;-1.684;2022-08-03T05:46:38;21.20;78.70
52575;DHT22;38468;48.114;-1.684;2022-08-03T05:48:39;21.30;78.50
52575;DHT22;38468;48.114;-1.684;2022-08-03T05:50:40;21.20;78.70
52575;DHT22;38468;48.114;-1.684;2022-08-03T05:52:41;21.20;78.90
52575;DHT22;38468;48.114;-1.684;2022-08-03T05:54:42;21.20;79.00
52575;DHT22;38468;48.114;-1.684;2022-08-03T05:56:43;21.20;79.00
52575;DHT22;38468;48.114;-1.684;2022-08-03T05:58:47;21.20;79.10
52575;DHT22;38468;48.114;-1.684;2022-08-03T06:00:47;21.40;78.70
52575;DHT22;38468;48.114;-1.684;2022-08-03T06:02:48;21.40;78.60
52575;DHT22;38468;48.114;-1.684;2022-08-03T06:04:49;21.40;78.50
52575;DHT22;38468;48.114;-1.684;2022-08-03T06:06:49;21.50;78.00
52575;DHT22;38468;48.114;-1.684;2022-08-03T06:08:50;21.50;78.00
52575;DHT22;38468;48.114;-1.684;2022-08-03T06:10:51;21.40;78.10
52575;DHT22;38468;48.114;-1.684;2022-08-03T06:12:51;21.30;78.60
52575;DHT22;38468;48.114;-1.684;2022-08-03T06:14:52;21.40;78.50
52575;DHT22;38468;48.114;-1.684;2022-08-03T06:16:52;21.40;78.20
52575;DHT22;38468;48.114;-1.684;2022-08-03T06:18:53;21.40;78.30
52575;DHT22;38468;48.114;-1.684;2022-08-03T06:20:54;21.40;78.30
52575;DHT22;38468;48.114;-1.684;2022-08-03T06:22:55;21.40;78.20
52575;DHT22;38468;48.114;-1.684;2022-08-03T06:24:56;21.30;78.40
52575;DHT22;38468;48.114;-1.684;2022-08-03T06:26:58;21.40;78.20
52575;DHT22;38468;48.114;-1.684;2022-08-03T06:28:58;21.50;78.10
52575;DHT22;38468;48.114;-1.684;2022-08-03T06:31:00;21.50;77.80
52575;DHT22;38468;48.114;-1.684;2022-08-03T06:33:00;21.50;77.60
52575;DHT22;38468;48.114;-1.684;2022-08-03T06:37:58;21.50;77.70
52575;DHT22;38468;48.114;-1.684;2022-08-03T06:39:59;21.60;77.50
52575;DHT22;38468;48.114;-1.684;2022-08-03T06:41:59;21.60;77.40
52575;DHT22;38468;48.114;-1.684;2022-08-03T06:44:04;21.70;77.30
52575;DHT22;38468;48.114;-1.684;2022-08-03T06:46:05;21.70;77.20
52575;DHT22;38468;48.114;-1.684;2022-08-03T06:48:07;21.60;77.20
52575;DHT22;38468;48.114;-1.684;2022-08-03T06:50:09;21.80;77.10
52575;DHT22;38468;48.114;-1.684;2022-08-03T06:52:10;21.80;77.10
52575;DHT22;38468;48.114;-1.684;2022-08-03T06:54:10;21.80;77.00
52575;DHT22;38468;48.114;-1.684;2022-08-03T06:56:11;21.80;76.80
52575;DHT22;38468;48.114;-1.684;2022-08-03T06:58:12;21.80;77.00
52575;DHT22;38468;48.114;-1.684;2022-08-03T07:00:13;21.90;76.70
52575;DHT22;38468;48.114;-1.684;2022-08-03T07:02:14;21.80;76.80
52575;DHT22;38468;48.114;-1.684;2022-08-03T07:04:15;21.80;76.90
52575;DHT22;38468;48.114;-1.684;2022-08-03T07:06:49;21.90;76.60
52575;DHT22;38468;48.114;-1.684;2022-08-03T07:08:50;22.00;76.40
52575;DHT22;38468;48.114;-1.684;2022-08-03T07:10:51;21.70;77.20
52575;DHT22;38468;48.114;-1.684;2022-08-03T07:12:51;21.80;76.90
52575;DHT22;38468;48.114;-1.684;2022-08-03T07:14:53;21.90;76.80
52575;DHT22;38468;48.114;-1.684;2022-08-03T07:16:53;21.90;76.70
52575;DHT22;38468;48.114;-1.684;2022-08-03T07:18:54;22.00;77.10
52575;DHT22;38468;48.114;-1.684;2022-08-03T07:20:55;22.10;76.60
52575;DHT22;38468;48.114;-1.684;2022-08-03T07:22:56;22.10;76.20
52575;DHT22;38468;48.114;-1.684;2022-08-03T07:24:57;22.20;76.20
52575;DHT22;38468;48.114;-1.684;2022-08-03T07:26:58;22.30;76.00
52575;DHT22;38468;48.114;-1.684;2022-08-03T07:28:59;22.50;75.40
52575;DHT22;38468;48.114;-1.684;2022-08-03T07:31:00;22.60;74.80
52575;DHT22;38468;48.114;-1.684;2022-08-03T07:33:01;22.80;74.70
52575;DHT22;38468;48.114;-1.684;2022-08-03T07:35:03;22.90;74.60
52575;DHT22;38468;48.114;-1.684;2022-08-03T07:37:04;23.00;74.00
52575;DHT22;38468;48.114;-1.684;2022-08-03T07:39:04;22.90;73.60
52575;DHT22;38468;48.114;-1.684;2022-08-03T07:41:05;22.90;74.00
52575;DHT22;38468;48.114;-1.684;2022-08-03T07:43:06;22.90;73.70
52575;DHT22;38468;48.114;-1.684;2022-08-03T07:45:07;22.90;73.70
52575;DHT22;38468;48.114;-1.684;2022-08-03T07:47:08;23.00;73.60
52575;DHT22;38468;48.114;-1.684;2022-08-03T07:49:09;23.00;73.70
52575;DHT22;38468;48.114;-1.684;2022-08-03T07:51:09;23.10;73.80
52575;DHT22;38468;48.114;-1.684;2022-08-03T07:53:10;23.10;73.30
52575;DHT22;38468;48.114;-1.684;2022-08-03T07:55:11;23.00;73.60
52575;DHT22;38468;48.114;-1.684;2022-08-03T07:57:11;23.10;73.00
52575;DHT22;38468;48.114;-1.684;2022-08-03T07:59:12;23.10;72.90
52575;DHT22;38468;48.114;-1.684;2022-08-03T08:01:13;23.20;72.80
52575;DHT22;38468;48.114;-1.684;2022-08-03T08:03:13;23.30;72.80
52575;DHT22;38468;48.114;-1.684;2022-08-03T08:05:14;23.30;72.50
52575;DHT22;38468;48.114;-1.684;2022-08-03T08:07:15;23.30;72.50
52575;DHT22;38468;48.114;-1.684;2022-08-03T08:09:16;23.30;72.80
52575;DHT22;38468;48.114;-1.684;2022-08-03T08:11:16;23.30;72.40
52575;DHT22;38468;48.114;-1.684;2022-08-03T08:13:17;23.50;72.30
52575;DHT22;38468;48.114;-1.684;2022-08-03T08:15:18;23.60;72.00
52575;DHT22;38468;48.114;-1.684;2022-08-03T08:17:19;23.70;71.60
52575;DHT22;38468;48.114;-1.684;2022-08-03T08:19:19;23.90;71.30
52575;DHT22;38468;48.114;-1.684;2022-08-03T08:21:20;23.90;70.90
52575;DHT22;38468;48.114;-1.684;2022-08-03T08:23:21;23.90;70.50
52575;DHT22;38468;48.114;-1.684;2022-08-03T08:25:25;24.00;70.70
52575;DHT22;38468;48.114;-1.684;2022-08-03T08:27:26;24.10;70.20
52575;DHT22;38468;48.114;-1.684;2022-08-03T08:29:26;24.30;69.70
52575;DHT22;38468;48.114;-1.684;2022-08-03T08:31:27;24.40;69.00
52575;DHT22;38468;48.114;-1.684;2022-08-03T08:33:28;24.50;69.00
52575;DHT22;38468;48.114;-1.684;2022-08-03T08:35:34;24.50;68.20
52575;DHT22;38468;48.114;-1.684;2022-08-03T08:37:34;24.30;69.30
52575;DHT22;38468;48.114;-1.684;2022-08-03T08:39:35;24.50;69.40
52575;DHT22;38468;48.114;-1.684;2022-08-03T08:41:36;24.60;68.50
52575;DHT22;38468;48.114;-1.684;2022-08-03T08:43:37;24.80;68.30
52575;DHT22;38468;48.114;-1.684;2022-08-03T08:45:39;24.80;67.80
52575;DHT22;38468;48.114;-1.684;2022-08-03T08:47:44;24.90;68.40
52575;DHT22;38468;48.114;-1.684;2022-08-03T08:49:46;25.00;68.30
52575;DHT22;38468;48.114;-1.684;2022-08-03T08:51:50;25.00;67.80
52575;DHT22;38468;48.114;-1.684;2022-08-03T08:53:52;25.00;67.40
52575;DHT22;38468;48.114;-1.684;2022-08-03T08:55:56;25.10;68.10
52575;DHT22;38468;48.114;-1.684;2022-08-03T08:58:01;25.20;67.30
52575;DHT22;38468;48.114;-1.684;2022-08-03T09:00:09;25.50;66.40
52575;DHT22;38468;48.114;-1.684;2022-08-03T09:02:13;25.50;66.00
52575;DHT22;38468;48.114;-1.684;2022-08-03T09:04:16;25.50;66.10
52575;DHT22;38468;48.114;-1.684;2022-08-03T09:06:18;25.60;65.60
52575;DHT22;38468;48.114;-1.684;2022-08-03T09:08:19;25.80;65.50
52575;DHT22;38468;48.114;-1.684;2022-08-03T09:10:21;25.80;64.80
52575;DHT22;38468;48.114;-1.684;2022-08-03T09:12:21;25.80;64.60
52575;DHT22;38468;48.114;-1.684;2022-08-03T09:14:22;25.90;64.50
52575;DHT22;38468;48.114;-1.684;2022-08-03T09:16:23;26.00;64.30
52575;DHT22;38468;48.114;-1.684;2022-08-03T09:18:29;26.10;64.30
52575;DHT22;38468;48.114;-1.684;2022-08-03T09:20:35;26.20;64.10
52575;DHT22;38468;48.114;-1.684;2022-08-03T09:25:03;26.30;63.50
52575;DHT22;38468;48.114;-1.684;2022-08-03T09:27:06;26.40;63.50
52575;DHT22;38468;48.114;-1.684;2022-08-03T09:29:11;26.50;63.40
52575;DHT22;38468;48.114;-1.684;2022-08-03T09:31:11;26.60;62.80
52575;DHT22;38468;48.114;-1.684;2022-08-03T09:33:13;26.70;62.30
52575;DHT22;38468;48.114;-1.684;2022-08-03T09:35:15;26.70;61.60
52575;DHT22;38468;48.114;-1.684;2022-08-03T09:37:18;26.80;61.70
52575;DHT22;38468;48.114;-1.684;2022-08-03T09:39:26;26.90;61.70
52575;DHT22;38468;48.114;-1.684;2022-08-03T09:41:32;27.00;61.70
52575;DHT22;38468;48.114;-1.684;2022-08-03T09:43:45;26.80;60.90
52575;DHT22;38468;48.114;-1.684;2022-08-03T09:45:46;26.90;61.80
52575;DHT22;38468;48.114;-1.684;2022-08-03T09:47:47;27.10;60.80
52575;DHT22;38468;48.114;-1.684;2022-08-03T09:49:59;27.20;59.80
52575;DHT22;38468;48.114;-1.684;2022-08-03T09:52:17;27.30;60.60
52575;DHT22;38468;48.114;-1.684;2022-08-03T09:54:25;27.40;59.90
52575;DHT22;38468;48.114;-1.684;2022-08-03T09:56:40;27.50;60.00
52575;DHT22;38468;48.114;-1.684;2022-08-03T09:58:45;27.50;59.90
52575;DHT22;38468;48.114;-1.684;2022-08-03T10:01:03;27.60;59.20
52575;DHT22;38468;48.114;-1.684;2022-08-03T10:03:04;27.60;59.20
52575;DHT22;38468;48.114;-1.684;2022-08-03T10:05:06;27.70;59.30
52575;DHT22;38468;48.114;-1.684;2022-08-03T10:07:09;27.90;58.60
52575;DHT22;38468;48.114;-1.684;2022-08-03T10:09:14;27.90;58.90
52575;DHT22;38468;48.114;-1.684;2022-08-03T10:11:36;28.00;58.50
52575;DHT22;38468;48.114;-1.684;2022-08-03T10:13:39;28.00;58.50
52575;DHT22;38468;48.114;-1.684;2022-08-03T10:15:40;28.10;58.60
52575;DHT22;38468;48.114;-1.684;2022-08-03T10:17:40;28.00;59.00
52575;DHT22;38468;48.114;-1.684;2022-08-03T10:19:41;27.90;59.50
52575;DHT22;38468;48.114;-1.684;2022-08-03T10:21:49;28.00;59.80
52575;DHT22;38468;48.114;-1.684;2022-08-03T10:23:54;28.20;59.20
52575;DHT22;38468;48.114;-1.684;2022-08-03T10:25:58;28.30;58.50
52575;DHT22;38468;48.114;-1.684;2022-08-03T10:28:02;28.40;58.80
52575;DHT22;38468;48.114;-1.684;2022-08-03T10:30:06;28.50;57.60
52575;DHT22;38468;48.114;-1.684;2022-08-03T10:32:17;28.60;57.50
52575;DHT22;38468;48.114;-1.684;2022-08-03T10:34:22;28.80;57.70
52575;DHT22;38468;48.114;-1.684;2022-08-03T10:36:30;28.90;57.20
52575;DHT22;38468;48.114;-1.684;2022-08-03T10:38:42;29.00;56.70
52575;DHT22;38468;48.114;-1.684;2022-08-03T10:40:47;29.00;56.60
52575;DHT22;38468;48.114;-1.684;2022-08-03T10:42:51;28.90;55.80
52575;DHT22;38468;48.114;-1.684;2022-08-03T10:45:02;28.90;56.60
52575;DHT22;38468;48.114;-1.684;2022-08-03T10:47:03;29.00;55.90
52575;DHT22;38468;48.114;-1.684;2022-08-03T10:49:05;29.00;56.40
52575;DHT22;38468;48.114;-1.684;2022-08-03T10:51:15;29.20;55.80
52575;DHT22;38468;48.114;-1.684;2022-08-03T10:53:33;29.30;55.90
52575;DHT22;38468;48.114;-1.684;2022-08-03T10:55:37;29.40;55.20
52575;DHT22;38468;48.114;-1.684;2022-08-03T10:57:57;29.40;55.00
52575;DHT22;38468;48.114;-1.684;2022-08-03T10:59:59;29.50;55.40
52575;DHT22;38468;48.114;-1.684;2022-08-03T11:02:00;29.60;54.90
52575;DHT22;38468;48.114;-1.684;2022-08-03T11:06:19;29.90;53.80
52575;DHT22;38468;48.114;-1.684;2022-08-03T11:10:30;29.90;53.60
52575;DHT22;38468;48.114;-1.684;2022-08-03T11:12:32;30.00;53.70
52575;DHT22;38468;48.114;-1.684;2022-08-03T11:14:45;30.00;53.30
52575;DHT22;38468;48.114;-1.684;2022-08-03T11:16:49;29.80;53.30
52575;DHT22;38468;48.114;-1.684;2022-08-03T11:18:59;30.00;53.40
52575;DHT22;38468;48.114;-1.684;2022-08-03T11:21:00;30.20;53.30
52575;DHT22;38468;48.114;-1.684;2022-08-03T11:23:01;30.20;52.60
52575;DHT22;38468;48.114;-1.684;2022-08-03T11:25:02;30.30;52.00
52575;DHT22;38468;48.114;-1.684;2022-08-03T11:29:29;30.40;51.80
52575;DHT22;38468;48.114;-1.684;2022-08-03T11:33:31;30.40;51.10
52575;DHT22;38468;48.114;-1.684;2022-08-03T11:35:58;30.50;51.80
52575;DHT22;38468;48.114;-1.684;2022-08-03T11:39:59;30.70;50.80
52575;DHT22;38468;48.114;-1.684;2022-08-03T11:44:39;30.80;50.60
52575;DHT22;38468;48.114;-1.684;2022-08-03T11:46:40;30.90;50.60
52575;DHT22;38468;48.114;-1.684;2022-08-03T11:48:43;31.00;49.60
52575;DHT22;38468;48.114;-1.684;2022-08-03T11:50:44;31.00;49.80
52575;DHT22;38468;48.114;-1.684;2022-08-03T11:52:45;31.20;49.50
52575;DHT22;38468;48.114;-1.684;2022-08-03T11:54:50;31.30;49.30
52575;DHT22;38468;48.114;-1.684;2022-08-03T11:56:51;31.50;48.40
52575;DHT22;38468;48.114;-1.684;2022-08-03T11:58:56;31.50;49.00
52575;DHT22;38468;48.114;-1.684;2022-08-03T12:01:05;31.60;48.50
52575;DHT22;38468;48.114;-1.684;2022-08-03T12:03:08;31.80;47.90
52575;DHT22;38468;48.114;-1.684;2022-08-03T12:05:10;31.70;47.00
52575;DHT22;38468;48.114;-1.684;2022-08-03T12:07:10;31.50;48.40
52575;DHT22;38468;48.114;-1.684;2022-08-03T12:09:15;31.60;48.00
52575;DHT22;38468;48.114;-1.684;2022-08-03T12:11:16;31.80;47.90
52575;DHT22;38468;48.114;-1.684;2022-08-03T12:13:19;31.90;47.20
52575;DHT22;38468;48.114;-1.684;2022-08-03T12:15:30;32.10;47.40
52575;DHT22;38468;48.114;-1.684;2022-08-03T12:17:38;32.20;46.80
52575;DHT22;38468;48.114;-1.684;2022-08-03T12:19:42;32.20;46.10
52575;DHT22;38468;48.114;-1.684;2022-08-03T12:21:56;32.20;44.60
52575;DHT22;38468;48.114;-1.684;2022-08-03T12:24:02;32.10;45.10
52575;DHT22;38468;48.114;-1.684;2022-08-03T12:26:08;31.90;45.70
52575;DHT22;38468;48.114;-1.684;2022-08-03T12:28:17;31.90;45.60
52575;DHT22;38468;48.114;-1.684;2022-08-03T12:30:19;32.00;46.10
52575;DHT22;38468;48.114;-1.684;2022-08-03T12:32:20;32.10;46.50
52575;DHT22;38468;48.114;-1.684;2022-08-03T12:34:20;32.40;45.60
52575;DHT22;38468;48.114;-1.684;2022-08-03T12:36:21;32.50;44.90
52575;DHT22;38468;48.114;-1.684;2022-08-03T12:38:22;32.60;44.90
52575;DHT22;38468;48.114;-1.684;2022-08-03T12:40:26;32.50;44.60
52575;DHT22;38468;48.114;-1.684;2022-08-03T12:42:31;32.60;44.30
52575;DHT22;38468;48.114;-1.684;2022-08-03T12:44:34;32.70;44.10
52575;DHT22;38468;48.114;-1.684;2022-08-03T12:46:37;32.80;43.60
52575;DHT22;38468;48.114;-1.684;2022-08-03T12:51:09;32.90;42.60
52575;DHT22;38468;48.114;-1.684;2022-08-03T12:53:10;32.50;43.20
52575;DHT22;38468;48.114;-1.684;2022-08-03T12:55:18;32.40;42.50
52575;DHT22;38468;48.114;-1.684;2022-08-03T12:57:20;32.40;43.00
52575;DHT22;38468;48.114;-1.684;2022-08-03T12:59:29;32.50;43.80
52575;DHT22;38468;48.114;-1.684;2022-08-03T13:01:36;32.90;42.90
52575;DHT22;38468;48.114;-1.684;2022-08-03T13:05:44;33.10;42.40
52575;DHT22;38468;48.114;-1.684;2022-08-03T13:07:45;33.10;40.90
52575;DHT22;38468;48.114;-1.684;2022-08-03T13:09:51;32.30;42.60
52575;DHT22;38468;48.114;-1.684;2022-08-03T13:12:10;32.50;42.40
52575;DHT22;38468;48.114;-1.684;2022-08-03T13:14:11;32.20;42.80
52575;DHT22;38468;48.114;-1.684;2022-08-03T13:16:12;32.30;42.00
52575;DHT22;38468;48.114;-1.684;2022-08-03T13:18:12;32.30;42.30
52575;DHT22;38468;48.114;-1.684;2022-08-03T13:20:13;32.40;42.20
52575;DHT22;38468;48.114;-1.684;2022-08-03T13:22:19;32.80;41.80
52575;DHT22;38468;48.114;-1.684;2022-08-03T13:24:20;32.50;41.40
52575;DHT22;38468;48.114;-1.684;2022-08-03T13:26:21;32.60;41.30
52575;DHT22;38468;48.114;-1.684;2022-08-03T13:28:22;32.50;41.50
52575;DHT22;38468;48.114;-1.684;2022-08-03T13:30:23;32.80;41.80
52575;DHT22;38468;48.114;-1.684;2022-08-03T13:32:24;33.20;40.30
52575;DHT22;38468;48.114;-1.684;2022-08-03T13:34:24;33.30;40.40
52575;DHT22;38468;48.114;-1.684;2022-08-03T13:36:30;33.50;39.30
52575;DHT22;38468;48.114;-1.684;2022-08-03T13:38:31;33.50;39.10
52575;DHT22;38468;48.114;-1.684;2022-08-03T13:40:32;33.60;39.80
52575;DHT22;38468;48.114;-1.684;2022-08-03T13:42:34;33.60;39.20
52575;DHT22;38468;48.114;-1.684;2022-08-03T13:44:35;33.30;38.80
52575;DHT22;38468;48.114;-1.684;2022-08-03T13:46:36;32.90;39.30
52575;DHT22;38468;48.114;-1.684;2022-08-03T13:48:37;33.00;39.80
52575;DHT22;38468;48.114;-1.684;2022-08-03T13:50:37;33.10;39.70
52575;DHT22;38468;48.114;-1.684;2022-08-03T13:52:38;33.40;39.50
52575;DHT22;38468;48.114;-1.684;2022-08-03T13:54:39;33.50;39.10
52575;DHT22;38468;48.114;-1.684;2022-08-03T13:56:39;33.50;38.10
52575;DHT22;38468;48.114;-1.684;2022-08-03T13:58:41;33.00;39.00